ADDS TAF Board (Experimental) INFO Settings

IDs: Format: Expanded Condensed

KDEN - Denver Intl, CO, US

Issued at 1006 UTC 01 Mar 2015
Updated at: 1056 UTC 01 Mar 2015
Time1053Z 01/11Z 01/12Z 01/13Z 01/14Z 01/15Z 01/16Z 01/17Z 01/18Z 01/19Z 01/20Z 01/21Z 01/22Z 01/23Z
Type OBS PRVL PRVL PRVL PRVL PRVL PRVL PRVL PRVL PRVL PRVL PRVL PRVL PRVL
VIS 6 4 4 4 4 4 >6 >6 >6 >6 >6 >6 >6 >6
CIG 17 12 12 12 12 12 18 18 18 18 30 30 30 30
Cover OVC OVC OVC OVC OVC OVC BKN BKN BKN BKN BKN BKN BKN BKN
FltCat MVFR MVFR MVFR MVFR MVFR MVFR MVFR MVFR MVFR MVFR MVFR MVFR MVFR MVFR
WX BR BR BR BR BR BR -- -- -- -- -- -- -- --
WDir 230 30 30 30 30 30 70 70 70 70 100 100 100 100
WSpd 5 5 5 5 5 5 7 7 7 7 6 6 6 6
WGst -- -- -- -- -- -- -- -- -- -- -- -- -- --
R07/25
XWnd -3 4 4 4 4 4 2 2 2 2 -1 -1 -1 -1
HWnd -4 3 3 3 3 3 7 7 7 7 6 6 6 6
R08/26
XWnd -3 4 4 4 4 4 3 3 3 3 -1 -1 -1 -1
HWnd -4 2 2 2 2 2 7 7 7 7 6 6 6 6
R16/34
XWnd -4 2 2 2 2 2 7 7 7 7 6 6 6 6
HWnd 3 -4 -4 -4 -4 -4 -3 -3 -3 -3 1 1 1 1
R17/35
XWnd -4 2 2 2 2 2 7 7 7 7 6 6 6 6
HWnd 3 -4 -4 -4 -4 -4 -3 -3 -3 -3 1 1 1 1

NOTE: TEMPO conditions in [brackets]. Keep in mind TEMPO conditions might be better (lower impact) than prevailing conditions.

Raw TAF
KDEN 011006Z 0110/0212 15006KT 6SM BR SCT008 SCT012
  FM011100 03005KT 4SM BR SCT008 OVC012
  FM011600 07007KT P6SM SCT008 BKN018
  FM012000 10006KT P6SM SCT018 BKN030
  FM020200 14006KT P6SM VCSH SCT018 BKN030
  TEMPO 0203/0206 3SM -SN BR OVC018
  FM020600 16009KT 2SM -SN BR OVC015


Raw METAR
KDEN 011053Z 23005KT 6SM BR OVC017 M11/M13 A3007 RMK AO2 SLP235 T11111133
KDEN 010953Z 00000KT 6SM BR SCT120 M14/M16 A3004 RMK AO2 SLP231 T11391161
KDEN 010853Z 16004KT 7SM SCT120 M12/M14 A3003 RMK AO2 SLP225 T11171139 53007
KDEN 010753Z 16006KT 8SM SCT120 M12/M14 A3002 RMK AO2 SLP220 T11171139

METAR Board
Radar Display
Forecast Discussion

TAF Board Legend

Potential Impact
Threat None Slight Moderate High
Visibility (sm) ≥5.1 5.1>X≥3 3>X≥1 <1
Ceiling (100 ft) ≥30.1 30.1>X≥10 10>X≥5 <5
Wind Speed (kt) <10 10≤X<20 20≤X<30 ≥30
Wind Gust (kt) <15 15≤X<25 25≤X<35 ≥35
Weather No Wx Reported VCTS,-TS,-FZRA,SN TS,FZRA +TS,+FZRA,+SN